sensor_id;sensor_type;location;lat;lon;timestamp;temperature;humidity
62912;DHT22;49111;51.028;4.218;2022-07-22T00:01:57;16.90;99.90
62912;DHT22;49111;51.028;4.218;2022-07-22T00:04:23;16.90;99.90
62912;DHT22;49111;51.028;4.218;2022-07-22T00:06:49;16.80;99.90
62912;DHT22;49111;51.028;4.218;2022-07-22T00:09:14;16.80;99.90
62912;DHT22;49111;51.028;4.218;2022-07-22T00:11:40;16.80;99.90
62912;DHT22;49111;51.028;4.218;2022-07-22T00:14:06;16.80;99.90
62912;DHT22;49111;51.028;4.218;2022-07-22T00:16:32;16.80;99.90
62912;DHT22;49111;51.028;4.218;2022-07-22T00:18:58;16.80;99.90
62912;DHT22;49111;51.028;4.218;2022-07-22T00:21:24;16.80;99.90
62912;DHT22;49111;51.028;4.218;2022-07-22T00:23:50;16.80;99.90
62912;DHT22;49111;51.028;4.218;2022-07-22T00:26:15;16.70;99.90
62912;DHT22;49111;51.028;4.218;2022-07-22T00:28:41;16.70;99.90
62912;DHT22;49111;51.028;4.218;2022-07-22T00:31:07;16.70;99.90
62912;DHT22;49111;51.028;4.218;2022-07-22T00:33:33;16.70;99.90
62912;DHT22;49111;51.028;4.218;2022-07-22T00:35:59;16.70;99.90
62912;DHT22;49111;51.028;4.218;2022-07-22T00:38:24;16.60;99.90
62912;DHT22;49111;51.028;4.218;2022-07-22T00:40:50;16.60;99.90
62912;DHT22;49111;51.028;4.218;2022-07-22T00:43:16;16.60;99.90
62912;DHT22;49111;51.028;4.218;2022-07-22T00:45:42;16.60;99.90
62912;DHT22;49111;51.028;4.218;2022-07-22T00:48:08;16.60;99.90
62912;DHT22;49111;51.028;4.218;2022-07-22T00:50:34;16.60;99.90
62912;DHT22;49111;51.028;4.218;2022-07-22T00:53:00;16.50;99.90
62912;DHT22;49111;51.028;4.218;2022-07-22T00:55:27;16.50;99.90
62912;DHT22;49111;51.028;4.218;2022-07-22T00:57:53;16.50;99.90
62912;DHT22;49111;51.028;4.218;2022-07-22T01:00:21;16.50;99.90
62912;DHT22;49111;51.028;4.218;2022-07-22T01:02:47;16.50;99.90
62912;DHT22;49111;51.028;4.218;2022-07-22T01:05:13;16.40;99.90
62912;DHT22;49111;51.028;4.218;2022-07-22T01:07:39;16.40;99.90
62912;DHT22;49111;51.028;4.218;2022-07-22T01:10:07;16.40;99.90
62912;DHT22;49111;51.028;4.218;2022-07-22T01:12:33;16.40;99.90
62912;DHT22;49111;51.028;4.218;2022-07-22T01:14:59;16.40;99.90
62912;DHT22;49111;51.028;4.218;2022-07-22T01:17:24;16.30;99.90
62912;DHT22;49111;51.028;4.218;2022-07-22T01:19:50;16.30;99.90
62912;DHT22;49111;51.028;4.218;2022-07-22T01:22:16;16.30;99.90
62912;DHT22;49111;51.028;4.218;2022-07-22T01:24:43;16.30;99.90
62912;DHT22;49111;51.028;4.218;2022-07-22T01:27:08;16.30;99.90
62912;DHT22;49111;51.028;4.218;2022-07-22T01:29:34;16.20;99.90
62912;DHT22;49111;51.028;4.218;2022-07-22T01:32:01;16.20;99.90
62912;DHT22;49111;51.028;4.218;2022-07-22T01:34:28;16.20;99.90
62912;DHT22;49111;51.028;4.218;2022-07-22T01:36:53;16.20;99.90
62912;DHT22;49111;51.028;4.218;2022-07-22T01:39:20;16.20;99.90
62912;DHT22;49111;51.028;4.218;2022-07-22T01:41:45;16.20;99.90
62912;DHT22;49111;51.028;4.218;2022-07-22T01:44:12;16.10;99.90
62912;DHT22;49111;51.028;4.218;2022-07-22T01:46:38;16.10;99.90
62912;DHT22;49111;51.028;4.218;2022-07-22T01:49:03;16.10;99.90
62912;DHT22;49111;51.028;4.218;2022-07-22T01:51:34;16.20;99.90
62912;DHT22;49111;51.028;4.218;2022-07-22T01:53:59;16.20;99.90
62912;DHT22;49111;51.028;4.218;2022-07-22T01:56:25;16.10;99.90
62912;DHT22;49111;51.028;4.218;2022-07-22T01:58:53;16.20;99.90
62912;DHT22;49111;51.028;4.218;2022-07-22T02:01:23;16.20;99.90
62912;DHT22;49111;51.028;4.218;2022-07-22T02:03:50;16.10;99.90
62912;DHT22;49111;51.028;4.218;2022-07-22T02:06:16;16.10;99.90
62912;DHT22;49111;51.028;4.218;2022-07-22T02:08:43;16.10;99.90
62912;DHT22;49111;51.028;4.218;2022-07-22T02:11:12;16.10;99.90
62912;DHT22;49111;51.028;4.218;2022-07-22T02:14:04;16.10;99.90
62912;DHT22;49111;51.028;4.218;2022-07-22T02:16:30;16.10;99.90
62912;DHT22;49111;51.028;4.218;2022-07-22T02:18:56;16.10;99.90
62912;DHT22;49111;51.028;4.218;2022-07-22T02:21:22;16.10;99.90
62912;DHT22;49111;51.028;4.218;2022-07-22T02:23:51;16.00;99.90
62912;DHT22;49111;51.028;4.218;2022-07-22T02:26:17;16.00;99.90
62912;DHT22;49111;51.028;4.218;2022-07-22T02:28:44;16.00;99.90
62912;DHT22;49111;51.028;4.218;2022-07-22T02:31:10;16.00;99.90
62912;DHT22;49111;51.028;4.218;2022-07-22T02:33:37;16.00;99.90
62912;DHT22;49111;51.028;4.218;2022-07-22T02:36:05;15.90;99.90
62912;DHT22;49111;51.028;4.218;2022-07-22T02:38:33;15.90;99.90
62912;DHT22;49111;51.028;4.218;2022-07-22T02:40:59;15.80;99.90
62912;DHT22;49111;51.028;4.218;2022-07-22T02:43:24;15.80;99.90
62912;DHT22;49111;51.028;4.218;2022-07-22T02:45:51;15.70;99.90
62912;DHT22;49111;51.028;4.218;2022-07-22T02:48:19;15.70;99.90
62912;DHT22;49111;51.028;4.218;2022-07-22T02:50:45;15.70;99.90
62912;DHT22;49111;51.028;4.218;2022-07-22T02:53:14;15.70;99.90
62912;DHT22;49111;51.028;4.218;2022-07-22T02:55:40;15.60;99.90
62912;DHT22;49111;51.028;4.218;2022-07-22T02:58:07;15.60;99.90
62912;DHT22;49111;51.028;4.218;2022-07-22T03:00:35;15.60;99.90
62912;DHT22;49111;51.028;4.218;2022-07-22T03:03:01;15.60;99.90
62912;DHT22;49111;51.028;4.218;2022-07-22T03:05:27;15.60;99.90
62912;DHT22;49111;51.028;4.218;2022-07-22T03:08:08;15.50;99.90
62912;DHT22;49111;51.028;4.218;2022-07-22T03:10:34;15.50;99.90
62912;DHT22;49111;51.028;4.218;2022-07-22T03:12:59;15.50;99.90
62912;DHT22;49111;51.028;4.218;2022-07-22T03:15:25;15.50;99.90
62912;DHT22;49111;51.028;4.218;2022-07-22T03:17:51;15.50;99.90
62912;DHT22;49111;51.028;4.218;2022-07-22T03:20:18;15.50;99.90
62912;DHT22;49111;51.028;4.218;2022-07-22T03:22:44;15.50;99.90
62912;DHT22;49111;51.028;4.218;2022-07-22T03:25:11;15.40;99.90
62912;DHT22;49111;51.028;4.218;2022-07-22T03:27:37;15.50;99.90
62912;DHT22;49111;51.028;4.218;2022-07-22T03:30:04;15.50;99.90
62912;DHT22;49111;51.028;4.218;2022-07-22T03:32:33;15.50;99.90
62912;DHT22;49111;51.028;4.218;2022-07-22T03:34:59;15.50;99.90
62912;DHT22;49111;51.028;4.218;2022-07-22T03:37:25;15.40;99.90
62912;DHT22;49111;51.028;4.218;2022-07-22T03:39:50;15.50;99.90
62912;DHT22;49111;51.028;4.218;2022-07-22T03:42:16;15.40;99.90
62912;DHT22;49111;51.028;4.218;2022-07-22T03:44:46;15.40;99.90
62912;DHT22;49111;51.028;4.218;2022-07-22T03:47:17;15.30;99.90
62912;DHT22;49111;51.028;4.218;2022-07-22T03:49:43;15.30;99.90
62912;DHT22;49111;51.028;4.218;2022-07-22T03:52:11;15.20;99.90
62912;DHT22;49111;51.028;4.218;2022-07-22T03:54:39;15.20;99.90
62912;DHT22;49111;51.028;4.218;2022-07-22T03:57:04;15.20;99.90
62912;DHT22;49111;51.028;4.218;2022-07-22T03:59:31;15.20;99.90
62912;DHT22;49111;51.028;4.218;2022-07-22T04:01:58;15.20;99.90
62912;DHT22;49111;51.028;4.218;2022-07-22T04:04:23;15.10;99.90
62912;DHT22;49111;51.028;4.218;2022-07-22T04:06:49;15.10;99.90
62912;DHT22;49111;51.028;4.218;2022-07-22T04:09:20;15.20;99.90
62912;DHT22;49111;51.028;4.218;2022-07-22T04:11:47;15.20;99.90
62912;DHT22;49111;51.028;4.218;2022-07-22T04:14:13;15.20;99.90
62912;DHT22;49111;51.028;4.218;2022-07-22T04:16:39;15.10;99.90
62912;DHT22;49111;51.028;4.218;2022-07-22T04:19:09;15.10;99.90
62912;DHT22;49111;51.028;4.218;2022-07-22T04:21:47;15.20;99.90
62912;DHT22;49111;51.028;4.218;2022-07-22T04:24:13;15.10;99.90
62912;DHT22;49111;51.028;4.218;2022-07-22T04:26:39;15.20;99.90
62912;DHT22;49111;51.028;4.218;2022-07-22T04:29:05;15.20;99.90
62912;DHT22;49111;51.028;4.218;2022-07-22T04:31:31;15.30;99.90
62912;DHT22;49111;51.028;4.218;2022-07-22T04:34:08;15.30;99.90
62912;DHT22;49111;51.028;4.218;2022-07-22T04:36:34;15.40;99.90
62912;DHT22;49111;51.028;4.218;2022-07-22T04:39:01;15.40;99.90
62912;DHT22;49111;51.028;4.218;2022-07-22T04:41:27;15.50;99.90
62912;DHT22;49111;51.028;4.218;2022-07-22T04:43:53;15.50;99.90
62912;DHT22;49111;51.028;4.218;2022-07-22T04:46:22;15.70;99.90
62912;DHT22;49111;51.028;4.218;2022-07-22T04:48:47;15.80;99.90
62912;DHT22;49111;51.028;4.218;2022-07-22T04:51:14;15.80;99.90
62912;DHT22;49111;51.028;4.218;2022-07-22T04:53:42;15.90;99.90
62912;DHT22;49111;51.028;4.218;2022-07-22T04:56:08;16.10;99.90
62912;DHT22;49111;51.028;4.218;2022-07-22T04:58:34;16.20;99.90
62912;DHT22;49111;51.028;4.218;2022-07-22T05:00:59;16.20;99.90
62912;DHT22;49111;51.028;4.218;2022-07-22T05:03:25;16.30;99.90
62912;DHT22;49111;51.028;4.218;2022-07-22T05:05:52;16.40;99.90
62912;DHT22;49111;51.028;4.218;2022-07-22T05:08:27;16.50;99.90
62912;DHT22;49111;51.028;4.218;2022-07-22T05:10:53;16.60;99.90
62912;DHT22;49111;51.028;4.218;2022-07-22T05:13:19;16.70;99.90
62912;DHT22;49111;51.028;4.218;2022-07-22T05:15:45;16.70;99.90
62912;DHT22;49111;51.028;4.218;2022-07-22T05:18:11;16.80;99.90
62912;DHT22;49111;51.028;4.218;2022-07-22T05:20:37;16.80;99.90
62912;DHT22;49111;51.028;4.218;2022-07-22T05:23:03;16.90;99.90
62912;DHT22;49111;51.028;4.218;2022-07-22T05:25:31;17.00;99.90
62912;DHT22;49111;51.028;4.218;2022-07-22T05:27:57;17.00;99.90
62912;DHT22;49111;51.028;4.218;2022-07-22T05:30:43;17.10;99.90
62912;DHT22;49111;51.028;4.218;2022-07-22T05:33:11;17.20;99.90
62912;DHT22;49111;51.028;4.218;2022-07-22T05:35:57;17.30;99.90
62912;DHT22;49111;51.028;4.218;2022-07-22T05:38:28;17.40;99.90
62912;DHT22;49111;51.028;4.218;2022-07-22T05:40:54;17.40;99.90
62912;DHT22;49111;51.028;4.218;2022-07-22T05:43:19;17.50;99.90
62912;DHT22;49111;51.028;4.218;2022-07-22T05:45:45;17.50;99.90
62912;DHT22;49111;51.028;4.218;2022-07-22T05:48:11;17.60;99.90
62912;DHT22;49111;51.028;4.218;2022-07-22T05:50:37;17.50;99.90
62912;DHT22;49111;51.028;4.218;2022-07-22T05:53:03;17.50;99.90
62912;DHT22;49111;51.028;4.218;2022-07-22T05:55:29;17.60;99.90
62912;DHT22;49111;51.028;4.218;2022-07-22T05:57:55;17.60;99.90
62912;DHT22;49111;51.028;4.218;2022-07-22T06:00:21;17.70;99.90
62912;DHT22;49111;51.028;4.218;2022-07-22T06:02:47;17.80;99.90
62912;DHT22;49111;51.028;4.218;2022-07-22T06:05:18;17.90;99.90
62912;DHT22;49111;51.028;4.218;2022-07-22T06:07:44;17.90;99.90
62912;DHT22;49111;51.028;4.218;2022-07-22T06:10:14;18.00;99.90
62912;DHT22;49111;51.028;4.218;2022-07-22T06:12:40;18.00;99.90
62912;DHT22;49111;51.028;4.218;2022-07-22T06:15:06;17.80;99.90
62912;DHT22;49111;51.028;4.218;2022-07-22T06:17:32;17.80;99.90
62912;DHT22;49111;51.028;4.218;2022-07-22T06:19:59;17.90;99.90
62912;DHT22;49111;51.028;4.218;2022-07-22T06:22:26;18.00;99.90
62912;DHT22;49111;51.028;4.218;2022-07-22T06:24:52;18.10;99.90
62912;DHT22;49111;51.028;4.218;2022-07-22T06:27:18;18.10;99.90
62912;DHT22;49111;51.028;4.218;2022-07-22T06:29:46;18.20;99.90
62912;DHT22;49111;51.028;4.218;2022-07-22T06:32:12;18.20;99.90
62912;DHT22;49111;51.028;4.218;2022-07-22T06:34:38;18.40;99.90
62912;DHT22;49111;51.028;4.218;2022-07-22T06:37:04;18.40;99.90
62912;DHT22;49111;51.028;4.218;2022-07-22T06:39:31;18.40;99.90
62912;DHT22;49111;51.028;4.218;2022-07-22T06:42:15;18.30;99.90
62912;DHT22;49111;51.028;4.218;2022-07-22T06:45:08;18.30;99.90
62912;DHT22;49111;51.028;4.218;2022-07-22T06:47:43;18.40;99.90
62912;DHT22;49111;51.028;4.218;2022-07-22T06:50:11;18.50;99.90
62912;DHT22;49111;51.028;4.218;2022-07-22T06:52:41;18.50;99.90
62912;DHT22;49111;51.028;4.218;2022-07-22T06:55:09;18.40;99.90
62912;DHT22;49111;51.028;4.218;2022-07-22T06:57:41;18.40;99.90
62912;DHT22;49111;51.028;4.218;2022-07-22T07:00:09;18.60;99.90
62912;DHT22;49111;51.028;4.218;2022-07-22T07:02:50;18.60;99.90
62912;DHT22;49111;51.028;4.218;2022-07-22T07:05:16;18.60;99.90
62912;DHT22;49111;51.028;4.218;2022-07-22T07:07:41;18.60;99.90
62912;DHT22;49111;51.028;4.218;2022-07-22T07:10:08;18.70;99.90
62912;DHT22;49111;51.028;4.218;2022-07-22T07:12:55;18.70;99.90
62912;DHT22;49111;51.028;4.218;2022-07-22T07:15:26;18.80;99.90
62912;DHT22;49111;51.028;4.218;2022-07-22T07:17:56;18.80;99.90
62912;DHT22;49111;51.028;4.218;2022-07-22T07:20:23;18.90;99.90
62912;DHT22;49111;51.028;4.218;2022-07-22T07:22:49;19.10;99.90
62912;DHT22;49111;51.028;4.218;2022-07-22T07:25:15;19.30;99.80
62912;DHT22;49111;51.028;4.218;2022-07-22T07:27:41;19.50;99.90
62912;DHT22;49111;51.028;4.218;2022-07-22T07:30:11;19.60;98.90
62912;DHT22;49111;51.028;4.218;2022-07-22T07:32:37;19.80;99.00
62912;DHT22;49111;51.028;4.218;2022-07-22T07:35:05;19.80;98.50
62912;DHT22;49111;51.028;4.218;2022-07-22T07:37:31;20.00;98.20
62912;DHT22;49111;51.028;4.218;2022-07-22T07:39:58;20.00;98.00
62912;DHT22;49111;51.028;4.218;2022-07-22T07:42:24;20.00;98.10
62912;DHT22;49111;51.028;4.218;2022-07-22T07:44:50;20.00;97.60
62912;DHT22;49111;51.028;4.218;2022-07-22T07:47:16;20.10;97.70
62912;DHT22;49111;51.028;4.218;2022-07-22T07:49:45;20.20;97.70
62912;DHT22;49111;51.028;4.218;2022-07-22T07:52:11;20.40;97.00
62912;DHT22;49111;51.028;4.218;2022-07-22T07:54:39;20.40;97.30
62912;DHT22;49111;51.028;4.218;2022-07-22T07:57:06;20.60;97.60
62912;DHT22;49111;51.028;4.218;2022-07-22T07:59:33;20.50;97.00
62912;DHT22;49111;51.028;4.218;2022-07-22T08:02:01;20.60;96.40
62912;DHT22;49111;51.028;4.218;2022-07-22T08:04:28;20.80;95.90
62912;DHT22;49111;51.028;4.218;2022-07-22T08:06:54;21.00;96.00
62912;DHT22;49111;51.028;4.218;2022-07-22T08:09:20;21.10;94.70
62912;DHT22;49111;51.028;4.218;2022-07-22T08:11:45;21.20;95.10
62912;DHT22;49111;51.028;4.218;2022-07-22T08:14:26;21.10;94.70
62912;DHT22;49111;51.028;4.218;2022-07-22T08:17:30;21.10;95.10
62912;DHT22;49111;51.028;4.218;2022-07-22T08:19:57;21.30;95.50
62912;DHT22;49111;51.028;4.218;2022-07-22T08:22:22;21.50;95.30
62912;DHT22;49111;51.028;4.218;2022-07-22T08:24:49;21.50;95.30
62912;DHT22;49111;51.028;4.218;2022-07-22T08:27:16;21.50;94.00
62912;DHT22;49111;51.028;4.218;2022-07-22T08:29:42;21.40;94.40
62912;DHT22;49111;51.028;4.218;2022-07-22T08:32:08;21.20;93.90
62912;DHT22;49111;51.028;4.218;2022-07-22T08:34:35;21.20;94.00
62912;DHT22;49111;51.028;4.218;2022-07-22T08:37:01;21.40;95.20
62912;DHT22;49111;51.028;4.218;2022-07-22T08:39:27;21.30;93.50
62912;DHT22;49111;51.028;4.218;2022-07-22T08:41:54;21.50;94.00
62912;DHT22;49111;51.028;4.218;2022-07-22T08:44:21;21.60;94.10
62912;DHT22;49111;51.028;4.218;2022-07-22T08:46:47;21.80;92.60
62912;DHT22;49111;51.028;4.218;2022-07-22T08:49:18;21.90;92.80
62912;DHT22;49111;51.028;4.218;2022-07-22T08:52:16;21.80;93.10
62912;DHT22;49111;51.028;4.218;2022-07-22T08:54:47;21.90;93.00
62912;DHT22;49111;51.028;4.218;2022-07-22T08:57:14;21.80;93.00
62912;DHT22;49111;51.028;4.218;2022-07-22T08:59:55;21.70;92.90
62912;DHT22;49111;51.028;4.218;2022-07-22T09:02:21;21.70;92.90
62912;DHT22;49111;51.028;4.218;2022-07-22T09:04:57;21.70;92.60
62912;DHT22;49111;51.028;4.218;2022-07-22T09:07:44;21.70;92.90
62912;DHT22;49111;51.028;4.218;2022-07-22T09:10:33;21.60;92.40
62912;DHT22;49111;51.028;4.218;2022-07-22T09:13:05;21.50;92.80
62912;DHT22;49111;51.028;4.218;2022-07-22T09:15:48;21.50;93.00
62912;DHT22;49111;51.028;4.218;2022-07-22T09:18:47;21.50;92.30
62912;DHT22;49111;51.028;4.218;2022-07-22T09:21:29;21.50;92.60
62912;DHT22;49111;51.028;4.218;2022-07-22T09:24:29;21.60;92.40
62912;DHT22;49111;51.028;4.218;2022-07-22T09:27:03;21.70;92.70
62912;DHT22;49111;51.028;4.218;2022-07-22T09:29:52;21.90;92.00
62912;DHT22;49111;51.028;4.218;2022-07-22T09:32:21;22.10;92.00
62912;DHT22;49111;51.028;4.218;2022-07-22T09:35:02;22.10;92.00
62912;DHT22;49111;51.028;4.218;2022-07-22T09:37:30;21.80;92.50
62912;DHT22;49111;51.028;4.218;2022-07-22T09:40:12;21.80;92.10
62912;DHT22;49111;51.028;4.218;2022-07-22T09:42:47;22.10;92.80
62912;DHT22;49111;51.028;4.218;2022-07-22T09:45:14;22.30;93.20
62912;DHT22;49111;51.028;4.218;2022-07-22T09:47:41;22.60;93.10
62912;DHT22;49111;51.028;4.218;2022-07-22T09:50:29;22.70;91.90
62912;DHT22;49111;51.028;4.218;2022-07-22T09:53:16;22.90;92.50
62912;DHT22;49111;51.028;4.218;2022-07-22T09:56:04;23.10;91.30
62912;DHT22;49111;51.028;4.218;2022-07-22T09:58:31;23.40;91.00
62912;DHT22;49111;51.028;4.218;2022-07-22T10:01:04;23.60;91.10
62912;DHT22;49111;51.028;4.218;2022-07-22T10:03:34;23.60;89.50
62912;DHT22;49111;51.028;4.218;2022-07-22T10:06:04;23.50;90.30
62912;DHT22;49111;51.028;4.218;2022-07-22T10:08:33;23.60;89.70
62912;DHT22;49111;51.028;4.218;2022-07-22T10:11:05;23.50;88.30
62912;DHT22;49111;51.028;4.218;2022-07-22T10:13:32;23.60;88.70
62912;DHT22;49111;51.028;4.218;2022-07-22T10:15:59;23.50;89.70
62912;DHT22;49111;51.028;4.218;2022-07-22T10:18:27;23.20;88.90
62912;DHT22;49111;51.028;4.218;2022-07-22T10:21:15;23.40;90.30
62912;DHT22;49111;51.028;4.218;2022-07-22T10:24:14;23.50;89.20
62912;DHT22;49111;51.028;4.218;2022-07-22T10:26:57;23.50;90.50
62912;DHT22;49111;51.028;4.218;2022-07-22T10:29:39;23.20;90.10
62912;DHT22;49111;51.028;4.218;2022-07-22T10:32:22;23.20;91.10
62912;DHT22;49111;51.028;4.218;2022-07-22T10:45:31;24.10;87.30
62912;DHT22;49111;51.028;4.218;2022-07-22T10:48:00;24.30;86.90
62912;DHT22;49111;51.028;4.218;2022-07-22T10:50:53;24.30;86.50
62912;DHT22;49111;51.028;4.218;2022-07-22T10:53:38;24.30;86.20
62912;DHT22;49111;51.028;4.218;2022-07-22T10:58:42;24.50;86.60
62912;DHT22;49111;51.028;4.218;2022-07-22T11:01:10;24.40;86.70
62912;DHT22;49111;51.028;4.218;2022-07-22T11:03:38;24.40;89.30
62912;DHT22;49111;51.028;4.218;2022-07-22T11:09:02;24.60;86.40
62912;DHT22;49111;51.028;4.218;2022-07-22T11:11:45;24.70;87.10
62912;DHT22;49111;51.028;4.218;2022-07-22T11:14:21;24.90;87.10
62912;DHT22;49111;51.028;4.218;2022-07-22T11:16:49;25.00;83.80
62912;DHT22;49111;51.028;4.218;2022-07-22T11:19:20;25.00;82.80
62912;DHT22;49111;51.028;4.218;2022-07-22T11:21:50;25.10;84.50
62912;DHT22;49111;51.028;4.218;2022-07-22T11:24:17;25.00;85.00
62912;DHT22;49111;51.028;4.218;2022-07-22T11:26:47;25.10;84.40
62912;DHT22;49111;51.028;4.218;2022-07-22T11:29:23;24.90;84.20
62912;DHT22;49111;51.028;4.218;2022-07-22T11:31:49;25.10;86.60
62912;DHT22;49111;51.028;4.218;2022-07-22T11:34:16;25.20;83.90
62912;DHT22;49111;51.028;4.218;2022-07-22T11:36:44;25.00;85.30
62912;DHT22;49111;51.028;4.218;2022-07-22T11:39:12;25.00;85.40
62912;DHT22;49111;51.028;4.218;2022-07-22T11:41:38;25.20;84.30
62912;DHT22;49111;51.028;4.218;2022-07-22T11:44:04;25.20;82.10
62912;DHT22;49111;51.028;4.218;2022-07-22T11:46:41;25.20;82.10
62912;DHT22;49111;51.028;4.218;2022-07-22T11:49:08;24.90;82.60
62912;DHT22;49111;51.028;4.218;2022-07-22T11:51:37;25.00;83.20
62912;DHT22;49111;51.028;4.218;2022-07-22T11:54:04;25.10;81.60
62912;DHT22;49111;51.028;4.218;2022-07-22T11:56:31;24.90;82.50
62912;DHT22;49111;51.028;4.218;2022-07-22T11:58:58;24.90;85.00
62912;DHT22;49111;51.028;4.218;2022-07-22T12:01:26;25.00;84.60
62912;DHT22;49111;51.028;4.218;2022-07-22T12:03:56;25.20;84.50
62912;DHT22;49111;51.028;4.218;2022-07-22T12:06:23;25.30;81.50
62912;DHT22;49111;51.028;4.218;2022-07-22T12:08:54;25.30;81.90
62912;DHT22;49111;51.028;4.218;2022-07-22T12:11:22;25.20;82.40
62912;DHT22;49111;51.028;4.218;2022-07-22T12:13:50;25.20;83.40
62912;DHT22;49111;51.028;4.218;2022-07-22T12:16:25;25.30;80.40
62912;DHT22;49111;51.028;4.218;2022-07-22T12:19:00;25.30;80.80
62912;DHT22;49111;51.028;4.218;2022-07-22T12:21:31;25.60;81.50
62912;DHT22;49111;51.028;4.218;2022-07-22T12:24:05;25.70;79.40
62912;DHT22;49111;51.028;4.218;2022-07-22T12:26:40;25.80;80.90
62912;DHT22;49111;51.028;4.218;2022-07-22T12:32:00;26.00;81.30
62912;DHT22;49111;51.028;4.218;2022-07-22T12:34:33;25.90;81.50
62912;DHT22;49111;51.028;4.218;2022-07-22T12:37:14;25.90;81.40
62912;DHT22;49111;51.028;4.218;2022-07-22T12:42:21;26.00;78.90
62912;DHT22;49111;51.028;4.218;2022-07-22T12:45:01;25.80;77.70
62912;DHT22;49111;51.028;4.218;2022-07-22T12:50:31;25.70;78.00
62912;DHT22;49111;51.028;4.218;2022-07-22T12:53:08;25.90;78.00
62912;DHT22;49111;51.028;4.218;2022-07-22T12:55:46;26.00;77.90
62912;DHT22;49111;51.028;4.218;2022-07-22T12:58:13;25.90;79.60
62912;DHT22;49111;51.028;4.218;2022-07-22T13:00:45;26.00;79.40
62912;DHT22;49111;51.028;4.218;2022-07-22T13:03:11;26.10;76.80
62912;DHT22;49111;51.028;4.218;2022-07-22T13:05:37;26.10;79.30
62912;DHT22;49111;51.028;4.218;2022-07-22T13:08:04;26.00;77.40
62912;DHT22;49111;51.028;4.218;2022-07-22T13:10:30;25.90;78.30
62912;DHT22;49111;51.028;4.218;2022-07-22T13:12:57;25.80;80.40
62912;DHT22;49111;51.028;4.218;2022-07-22T13:15:23;26.00;79.20
62912;DHT22;49111;51.028;4.218;2022-07-22T13:17:50;25.90;78.60
62912;DHT22;49111;51.028;4.218;2022-07-22T13:20:17;26.00;78.50
62912;DHT22;49111;51.028;4.218;2022-07-22T13:22:44;26.00;79.30
62912;DHT22;49111;51.028;4.218;2022-07-22T13:25:10;25.90;81.30
62912;DHT22;49111;51.028;4.218;2022-07-22T13:27:36;26.10;81.40
62912;DHT22;49111;51.028;4.218;2022-07-22T13:30:03;26.00;79.20
62912;DHT22;49111;51.028;4.218;2022-07-22T13:32:28;26.00;78.80
62912;DHT22;49111;51.028;4.218;2022-07-22T13:34:54;26.00;79.00
62912;DHT22;49111;51.028;4.218;2022-07-22T13:37:21;26.00;79.90
62912;DHT22;49111;51.028;4.218;2022-07-22T13:39:47;26.20;79.30
62912;DHT22;49111;51.028;4.218;2022-07-22T13:42:14;26.30;78.80
62912;DHT22;49111;51.028;4.218;2022-07-22T13:44:43;26.30;78.00
62912;DHT22;49111;51.028;4.218;2022-07-22T13:47:10;26.30;77.60
62912;DHT22;49111;51.028;4.218;2022-07-22T13:49:36;26.30;76.90
62912;DHT22;49111;51.028;4.218;2022-07-22T13:52:02;26.10;76.20
62912;DHT22;49111;51.028;4.218;2022-07-22T13:54:28;25.90;77.40
62912;DHT22;49111;51.028;4.218;2022-07-22T13:56:54;26.00;77.30
62912;DHT22;49111;51.028;4.218;2022-07-22T13:59:20;26.00;78.50
62912;DHT22;49111;51.028;4.218;2022-07-22T14:01:48;26.10;79.10
62912;DHT22;49111;51.028;4.218;2022-07-22T14:04:14;26.00;77.00
62912;DHT22;49111;51.028;4.218;2022-07-22T14:06:40;25.90;78.20
62912;DHT22;49111;51.028;4.218;2022-07-22T14:09:06;25.70;77.20
62912;DHT22;49111;51.028;4.218;2022-07-22T14:11:32;25.70;78.70
62912;DHT22;49111;51.028;4.218;2022-07-22T14:13:58;25.80;78.20
62912;DHT22;49111;51.028;4.218;2022-07-22T14:16:23;25.80;77.10
62912;DHT22;49111;51.028;4.218;2022-07-22T14:19:08;25.70;78.70
62912;DHT22;49111;51.028;4.218;2022-07-22T14:21:34;25.80;78.90
62912;DHT22;49111;51.028;4.218;2022-07-22T14:24:00;25.80;78.40
62912;DHT22;49111;51.028;4.218;2022-07-22T14:26:27;25.90;77.60
62912;DHT22;49111;51.028;4.218;2022-07-22T14:28:53;26.00;78.60
62912;DHT22;49111;51.028;4.218;2022-07-22T14:31:19;26.20;76.90
62912;DHT22;49111;51.028;4.218;2022-07-22T14:33:45;26.30;80.00
62912;DHT22;49111;51.028;4.218;2022-07-22T14:36:11;26.20;79.30
62912;DHT22;49111;51.028;4.218;2022-07-22T14:38:37;25.90;80.00
62912;DHT22;49111;51.028;4.218;2022-07-22T14:41:03;26.10;80.20
62912;DHT22;49111;51.028;4.218;2022-07-22T14:43:29;26.20;79.40
62912;DHT22;49111;51.028;4.218;2022-07-22T14:45:54;26.10;78.50
62912;DHT22;49111;51.028;4.218;2022-07-22T14:48:20;26.10;80.00
62912;DHT22;49111;51.028;4.218;2022-07-22T14:50:46;26.00;80.90
62912;DHT22;49111;51.028;4.218;2022-07-22T14:53:12;25.80;79.10
62912;DHT22;49111;51.028;4.218;2022-07-22T14:55:39;25.90;79.80
62912;DHT22;49111;51.028;4.218;2022-07-22T14:58:05;25.90;79.90
62912;DHT22;49111;51.028;4.218;2022-07-22T15:00:30;26.00;80.00
62912;DHT22;49111;51.028;4.218;2022-07-22T15:02:56;26.00;80.40
62912;DHT22;49111;51.028;4.218;2022-07-22T15:05:22;26.10;80.10
62912;DHT22;49111;51.028;4.218;2022-07-22T15:07:49;26.10;77.70
62912;DHT22;49111;51.028;4.218;2022-07-22T15:10:15;26.00;78.30
62912;DHT22;49111;51.028;4.218;2022-07-22T15:12:41;26.10;79.50
62912;DHT22;49111;51.028;4.218;2022-07-22T15:15:07;26.20;77.70
62912;DHT22;49111;51.028;4.218;2022-07-22T15:17:37;26.20;78.60
62912;DHT22;49111;51.028;4.218;2022-07-22T15:20:05;26.20;78.90
62912;DHT22;49111;51.028;4.218;2022-07-22T15:22:32;26.10;78.30
62912;DHT22;49111;51.028;4.218;2022-07-22T15:24:58;26.10;79.70
62912;DHT22;49111;51.028;4.218;2022-07-22T15:27:24;26.20;78.00
62912;DHT22;49111;51.028;4.218;2022-07-22T15:29:49;25.90;78.00
62912;DHT22;49111;51.028;4.218;2022-07-22T15:32:16;25.70;78.90
62912;DHT22;49111;51.028;4.218;2022-07-22T15:34:42;25.60;78.60
62912;DHT22;49111;51.028;4.218;2022-07-22T15:37:08;25.70;80.10
62912;DHT22;49111;51.028;4.218;2022-07-22T15:39:34;25.70;78.90
62912;DHT22;49111;51.028;4.218;2022-07-22T15:42:00;25.70;79.10
62912;DHT22;49111;51.028;4.218;2022-07-22T15:44:26;25.70;78.30
62912;DHT22;49111;51.028;4.218;2022-07-22T15:46:52;25.60;79.70
62912;DHT22;49111;51.028;4.218;2022-07-22T15:49:21;25.60;78.90
62912;DHT22;49111;51.028;4.218;2022-07-22T15:51:47;25.50;79.00
62912;DHT22;49111;51.028;4.218;2022-07-22T15:54:13;25.50;79.40
62912;DHT22;49111;51.028;4.218;2022-07-22T15:56:39;25.50;80.10
62912;DHT22;49111;51.028;4.218;2022-07-22T15:59:06;25.40;78.70
62912;DHT22;49111;51.028;4.218;2022-07-22T16:01:51;25.30;78.80
62912;DHT22;49111;51.028;4.218;2022-07-22T16:04:17;25.20;81.80
62912;DHT22;49111;51.028;4.218;2022-07-22T16:06:43;25.10;81.90